createdAt,value
2022-08-11T00:01:19.413Z,5.53
2022-08-11T00:03:50.201Z,4.90
2022-08-11T00:06:26.931Z,6.63
2022-08-11T00:08:55.062Z,5.30
2022-08-11T00:11:31.555Z,4.50
2022-08-11T00:13:59.667Z,8.00
2022-08-11T00:16:27.671Z,4.37
2022-08-11T00:18:57.770Z,6.20
2022-08-11T00:21:54.730Z,5.27
2022-08-11T00:24:14.106Z,5.97
2022-08-11T00:26:47.134Z,5.80
2022-08-11T00:29:14.244Z,5.53
2022-08-11T00:31:49.031Z,5.47
2022-08-11T00:34:17.618Z,4.43
2022-08-11T00:37:01.775Z,5.30
2022-08-11T00:39:33.895Z,7.47
2022-08-11T00:42:19.202Z,4.03
2022-08-11T00:45:10.666Z,5.63
2022-08-11T00:47:48.480Z,5.03
2022-08-11T00:50:46.553Z,7.67
2022-08-11T00:53:31.111Z,6.40
2022-08-11T00:56:03.894Z,6.27
2022-08-11T00:59:34.243Z,6.87
2022-08-11T01:02:07.377Z,6.10
2022-08-11T01:05:12.084Z,5.70
2022-08-11T01:08:10.006Z,4.53
2022-08-11T01:11:21.996Z,6.87
2022-08-11T01:14:33.847Z,6.03
2022-08-11T01:17:20.899Z,3.97
2022-08-11T01:20:45.970Z,6.07
2022-08-11T01:23:17.551Z,7.47
2022-08-11T01:26:12.559Z,6.27
2022-08-11T01:29:24.298Z,4.07
2022-08-11T01:31:57.188Z,4.43
2022-08-11T01:34:27.581Z,5.60
2022-08-11T01:37:16.892Z,5.03
2022-08-11T01:40:00.293Z,6.10
2022-08-11T01:43:01.043Z,6.53
2022-08-11T01:46:00.885Z,5.43
2022-08-11T01:49:29.039Z,5.67
2022-08-11T01:52:18.796Z,5.77
2022-08-11T01:55:15.240Z,6.60
2022-08-11T01:58:05.507Z,6.27
2022-08-11T02:00:44.799Z,4.87
2022-08-11T02:03:20.597Z,3.80
2022-08-11T02:06:00.385Z,5.60
2022-08-11T02:08:36.672Z,5.10
2022-08-11T02:11:31.594Z,4.73
2022-08-11T02:14:29.588Z,5.43
2022-08-11T02:17:10.604Z,5.80
2022-08-11T02:20:13.125Z,5.70
2022-08-11T02:23:08.302Z,4.50
2022-08-11T02:25:54.025Z,3.97
2022-08-11T02:28:29.061Z,5.03
2022-08-11T02:32:14.654Z,5.13
2022-08-11T02:34:28.856Z,6.97
2022-08-11T02:37:00.494Z,4.43
2022-08-11T02:39:35.916Z,4.47
2022-08-11T02:42:32.417Z,6.60
2022-08-11T02:45:06.260Z,4.23
2022-08-11T02:48:10.334Z,5.33
2022-08-11T02:50:42.861Z,4.20
2022-08-11T02:53:18.069Z,6.07
2022-08-11T02:56:11.260Z,5.83
2022-08-11T02:59:12.174Z,4.80
2022-08-11T03:02:05.068Z,4.00
2022-08-11T03:05:00.717Z,3.40
2022-08-11T03:07:40.776Z,5.23
2022-08-11T03:10:21.973Z,3.63
2022-08-11T03:13:35.750Z,5.87
2022-08-11T03:16:45.724Z,4.50
2022-08-11T03:19:18.773Z,4.40
2022-08-11T03:22:08.577Z,7.60
2022-08-11T03:25:03.153Z,4.83
2022-08-11T03:27:55.309Z,3.30
2022-08-11T03:30:31.454Z,4.87
2022-08-11T03:33:45.531Z,7.20
2022-08-11T03:36:28.213Z,6.90
2022-08-11T03:39:13.505Z,3.93
2022-08-11T03:42:05.184Z,4.60
2022-08-11T03:45:00.789Z,3.80
2022-08-11T03:47:52.593Z,4.60
2022-08-11T03:50:29.038Z,4.57
2022-08-11T03:53:28.134Z,5.70
2022-08-11T03:56:32.786Z,3.83
2022-08-11T03:59:08.744Z,4.73
2022-08-11T04:02:02.059Z,6.43
2022-08-11T04:05:00.245Z,5.77
2022-08-11T04:07:27.333Z,4.57
2022-08-11T04:10:29.412Z,3.83
2022-08-11T04:13:28.246Z,4.57
2022-08-11T04:16:32.537Z,6.07
2022-08-11T04:19:21.660Z,6.57
2022-08-11T04:22:08.366Z,4.60
2022-08-11T04:25:09.302Z,4.10
2022-08-11T04:28:06.101Z,6.43
2022-08-11T04:30:50.303Z,4.80
2022-08-11T04:33:39.056Z,3.67
2022-08-11T04:36:09.780Z,3.83
2022-08-11T04:39:14.627Z,4.67
2022-08-11T04:42:42.147Z,4.43
2022-08-11T04:45:37.481Z,4.30
2022-08-11T04:48:38.214Z,4.20
2022-08-11T04:51:56.744Z,5.30
2022-08-11T04:55:10.224Z,5.33
2022-08-11T04:58:03.418Z,3.23
2022-08-11T05:00:59.893Z,3.20
2022-08-11T05:03:26.952Z,2.53
2022-08-11T05:06:14.196Z,4.20
2022-08-11T05:09:31.098Z,2.10
2022-08-11T05:12:20.221Z,2.27
2022-08-11T05:15:11.263Z,2.37
2022-08-11T05:18:18.435Z,2.20
2022-08-11T05:21:11.412Z,2.47
2022-08-11T05:24:05.122Z,1.83
2022-08-11T05:27:05.554Z,1.70
2022-08-11T05:30:05.806Z,1.50
2022-08-11T05:33:01.679Z,1.77
2022-08-11T05:36:00.274Z,1.40
2022-08-11T05:38:46.823Z,1.37
2022-08-11T05:41:33.314Z,2.13
2022-08-11T05:44:22.254Z,2.27
2022-08-11T05:47:09.581Z,1.80
2022-08-11T05:49:56.747Z,1.93
2022-08-11T05:52:49.323Z,1.50
2022-08-11T05:55:53.987Z,2.03
2022-08-11T05:58:41.697Z,1.30
2022-08-11T06:01:12.236Z,1.10
2022-08-11T06:04:02.245Z,0.90
2022-08-11T06:06:30.072Z,0.93
2022-08-11T06:08:58.720Z,0.73
2022-08-11T06:11:43.016Z,1.07
2022-08-11T06:14:11.381Z,0.70
2022-08-11T06:16:41.045Z,0.70
2022-08-11T06:19:08.842Z,0.40
2022-08-11T06:21:36.833Z,0.30
2022-08-11T06:24:14.810Z,0.20
2022-08-11T06:27:10.746Z,0.20
2022-08-11T06:29:48.094Z,0.83
2022-08-11T06:32:26.118Z,1.03
2022-08-11T06:35:10.233Z,0.30
2022-08-11T06:37:49.442Z,0.20
2022-08-11T06:41:19.101Z,0.20
2022-08-11T06:44:05.115Z,0.10
2022-08-11T06:46:39.121Z,0.67
2022-08-11T06:49:27.982Z,0.20
2022-08-11T06:52:02.980Z,0.20
2022-08-11T06:54:41.478Z,0.53
2022-08-11T06:57:32.439Z,0.13
2022-08-11T07:00:28.132Z,0.20
2022-08-11T07:03:09.403Z,0.50
2022-08-11T07:06:18.367Z,0.20
2022-08-11T07:09:19.328Z,0.30
2022-08-11T07:12:10.927Z,0.10
2022-08-11T07:15:01.052Z,1.03
2022-08-11T07:17:31.842Z,0.10
2022-08-11T07:20:19.958Z,0.33
2022-08-11T07:23:21.171Z,0.20
2022-08-11T07:26:11.592Z,0.10
2022-08-11T07:28:58.807Z,0.00
2022-08-11T07:31:42.351Z,0.10
2022-08-11T07:34:18.119Z,0.83
2022-08-11T07:36:54.797Z,0.20
2022-08-11T07:39:24.740Z,1.13
2022-08-11T07:41:54.545Z,0.20
2022-08-11T07:44:30.700Z,0.83
2022-08-11T07:47:18.482Z,0.20
2022-08-11T07:50:07.431Z,0.53
2022-08-11T07:52:38.365Z,0.03
2022-08-11T07:55:17.193Z,1.50
2022-08-11T07:58:15.784Z,0.03
2022-08-11T08:01:10.279Z,0.10
2022-08-11T08:04:03.494Z,0.10
2022-08-11T08:06:51.714Z,0.97
2022-08-11T08:09:39.780Z,0.67
2022-08-11T08:12:27.286Z,0.30
2022-08-11T08:15:14.776Z,0.90
2022-08-11T08:18:20.709Z,0.67
2022-08-11T08:20:49.938Z,0.00
2022-08-11T08:23:35.354Z,0.17
2022-08-11T08:26:05.933Z,1.23
2022-08-11T08:28:46.733Z,0.10
2022-08-11T08:31:14.807Z,0.00
2022-08-11T08:33:42.974Z,0.20
2022-08-11T08:36:33.596Z,1.20
2022-08-11T08:39:20.654Z,0.10
2022-08-11T08:41:54.552Z,0.87
2022-08-11T08:44:41.414Z,0.03
2022-08-11T08:47:41.923Z,0.20
2022-08-11T08:50:39.820Z,0.10
2022-08-11T08:53:16.487Z,0.10
2022-08-11T08:55:46.265Z,1.10
2022-08-11T08:58:15.914Z,0.20
2022-08-11T09:00:46.139Z,0.10
2022-08-11T09:06:01.625Z,0.33
2022-08-11T09:08:32.830Z,0.33
2022-08-11T09:11:20.712Z,1.20
2022-08-11T09:14:06.594Z,0.40
2022-08-11T09:16:37.344Z,0.30
2022-08-11T09:19:04.905Z,0.67
2022-08-11T09:21:39.236Z,0.53
2022-08-11T09:24:37.131Z,0.20
2022-08-11T09:27:08.452Z,0.83
2022-08-11T09:29:38.148Z,3.40
2022-08-11T09:32:07.325Z,0.47
2022-08-11T09:34:37.353Z,0.03
2022-08-11T09:37:54.385Z,0.83
2022-08-11T09:40:29.487Z,1.27
2022-08-11T09:43:23.781Z,0.10
2022-08-11T09:46:12.973Z,1.10
2022-08-11T09:49:06.609Z,0.77
2022-08-11T09:52:02.054Z,0.13
2022-08-11T09:54:32.893Z,0.67
2022-08-11T09:57:18.485Z,0.77
2022-08-11T09:59:46.162Z,0.73
2022-08-11T10:02:14.058Z,0.20
2022-08-11T10:04:45.468Z,0.20
2022-08-11T10:07:15.945Z,2.00
2022-08-11T10:09:53.057Z,0.40
2022-08-11T10:12:29.817Z,2.43
2022-08-11T10:15:20.453Z,0.17
2022-08-11T10:18:11.859Z,0.20
2022-08-11T10:20:39.763Z,0.27
2022-08-11T10:23:28.931Z,0.60
2022-08-11T10:26:16.368Z,1.03
2022-08-11T10:29:02.513Z,0.10
2022-08-11T10:31:57.785Z,0.67
2022-08-11T10:34:29.357Z,0.63
2022-08-11T10:37:03.050Z,0.93
2022-08-11T10:39:30.911Z,0.30
2022-08-11T10:42:30.015Z,0.20
2022-08-11T10:45:26.460Z,0.13
2022-08-11T10:47:55.880Z,0.20
2022-08-11T10:50:42.938Z,0.33
2022-08-11T10:53:28.827Z,0.10
2022-08-11T10:56:16.119Z,0.30
2022-08-11T10:59:09.437Z,0.20
2022-08-11T11:02:00.951Z,0.90
2022-08-11T11:04:39.774Z,0.43
2022-08-11T11:07:16.989Z,0.17
2022-08-11T11:09:51.181Z,1.90
2022-08-11T11:12:45.948Z,0.23
2022-08-11T11:15:33.036Z,0.50
2022-08-11T11:18:25.127Z,0.77
2022-08-11T11:21:16.953Z,0.73
2022-08-11T11:23:58.861Z,0.60
2022-08-11T11:27:09.602Z,1.77
2022-08-11T11:30:24.810Z,0.73
2022-08-11T11:34:06.969Z,0.30
2022-08-11T11:37:13.938Z,0.20
2022-08-11T11:40:01.328Z,0.20
2022-08-11T11:42:49.590Z,0.50
2022-08-11T11:45:39.706Z,0.10
2022-08-11T11:48:26.995Z,4.33
2022-08-11T11:50:58.464Z,0.23
2022-08-11T11:53:45.901Z,1.13
2022-08-11T11:56:34.092Z,0.10
2022-08-11T11:59:21.160Z,1.20
2022-08-11T12:02:12.413Z,0.43
2022-08-11T12:05:06.441Z,0.37
2022-08-11T12:08:05.152Z,1.13
2022-08-11T12:11:21.030Z,0.93
2022-08-11T12:14:11.897Z,0.13
2022-08-11T12:17:04.673Z,0.10
2022-08-11T12:19:52.073Z,0.10
2022-08-11T12:22:39.267Z,0.53
2022-08-11T12:25:25.325Z,0.10
2022-08-11T12:28:16.511Z,0.20
2022-08-11T12:31:04.123Z,0.73
2022-08-11T12:33:51.494Z,0.10
2022-08-11T12:36:20.728Z,1.50
2022-08-11T12:38:51.321Z,1.30
2022-08-11T12:41:39.911Z,0.87
2022-08-11T12:44:29.670Z,1.60
2022-08-11T12:47:02.044Z,1.33
2022-08-11T12:49:49.952Z,2.70
2022-08-11T12:52:25.998Z,1.07
2022-08-11T12:55:09.753Z,1.83
2022-08-11T12:58:04.121Z,2.23
2022-08-11T13:00:51.263Z,1.17
2022-08-11T13:03:40.685Z,1.63
2022-08-11T13:06:08.330Z,1.23
2022-08-11T13:08:38.153Z,1.40
2022-08-11T13:11:24.629Z,0.40
2022-08-11T13:14:15.198Z,2.40
2022-08-11T13:17:03.689Z,0.80
2022-08-11T13:19:51.793Z,1.03
2022-08-11T13:22:41.933Z,0.33
2022-08-11T13:25:29.532Z,0.60
2022-08-11T13:28:18.619Z,1.20
2022-08-11T13:31:04.442Z,2.50
2022-08-11T13:33:53.103Z,1.90
2022-08-11T13:36:42.362Z,0.53
2022-08-11T13:39:30.669Z,1.53
2022-08-11T13:42:20.295Z,0.60
2022-08-11T13:45:07.906Z,0.40
2022-08-11T13:47:35.425Z,1.87
2022-08-11T13:50:08.291Z,1.43
2022-08-11T13:52:39.288Z,1.83
2022-08-11T13:55:51.836Z,2.20
2022-08-11T13:58:20.605Z,0.40
2022-08-11T14:01:00.713Z,0.40
2022-08-11T14:04:29.815Z,0.47
2022-08-11T14:06:29.585Z,0.40
2022-08-11T14:08:56.967Z,0.50
2022-08-11T14:12:22.096Z,1.30
2022-08-11T14:14:34.264Z,1.13
2022-08-11T14:17:09.046Z,0.77
2022-08-11T14:19:39.437Z,0.30
2022-08-11T14:22:08.306Z,0.70
2022-08-11T14:24:44.176Z,1.37
2022-08-11T14:28:31.203Z,0.40
2022-08-11T14:30:01.066Z,0.40
2022-08-11T14:32:28.543Z,1.57
2022-08-11T14:34:56.027Z,1.70
2022-08-11T14:37:25.708Z,0.60
2022-08-11T14:40:02.875Z,0.50
2022-08-11T14:42:49.171Z,0.90
2022-08-11T14:45:55.557Z,0.40
2022-08-11T14:48:23.695Z,1.03
2022-08-11T14:50:50.888Z,0.30
2022-08-11T14:53:18.924Z,1.50
2022-08-11T14:56:05.116Z,0.50
2022-08-11T14:58:33.942Z,0.80
2022-08-11T15:01:02.804Z,1.57
2022-08-11T15:03:33.867Z,0.80
2022-08-11T15:06:02.594Z,1.90
2022-08-11T15:08:52.942Z,0.90
2022-08-11T15:11:41.326Z,2.87
2022-08-11T15:14:28.880Z,2.40
2022-08-11T15:17:08.237Z,1.50
2022-08-11T15:19:41.097Z,1.10
2022-08-11T15:22:29.376Z,0.90
2022-08-11T15:25:19.017Z,0.97
2022-08-11T15:28:09.069Z,0.60
2022-08-11T15:30:56.914Z,1.57
2022-08-11T15:33:45.688Z,2.63
2022-08-11T15:36:33.206Z,1.70
2022-08-11T15:39:26.774Z,2.30
2022-08-11T15:42:22.049Z,1.97
2022-08-11T15:45:15.079Z,2.27
2022-08-11T15:48:08.642Z,1.70
2022-08-11T15:51:06.195Z,1.03
2022-08-11T15:53:43.901Z,2.07
2022-08-11T15:56:27.844Z,1.10
2022-08-11T15:59:42.166Z,0.90
2022-08-11T16:02:29.422Z,2.93
2022-08-11T16:04:58.585Z,1.50
2022-08-11T16:07:34.307Z,1.23
2022-08-11T16:10:09.634Z,1.10
2022-08-11T16:13:05.263Z,2.23
2022-08-11T16:16:00.998Z,1.77
2022-08-11T16:18:41.005Z,1.37
2022-08-11T16:21:33.729Z,2.07
2022-08-11T16:25:58.209Z,1.53
2022-08-11T16:27:22.409Z,1.37
2022-08-11T16:30:12.636Z,0.97
2022-08-11T16:33:48.151Z,1.70
2022-08-11T16:36:10.641Z,1.10
2022-08-11T16:38:59.050Z,1.53
2022-08-11T16:41:47.750Z,0.90
2022-08-11T16:44:37.648Z,1.70
2022-08-11T16:48:03.103Z,1.47
2022-08-11T16:50:35.810Z,1.83
2022-08-11T16:53:22.856Z,1.73
2022-08-11T16:56:32.593Z,1.00
2022-08-11T16:59:37.617Z,2.67
2022-08-11T17:02:32.106Z,2.67
2022-08-11T17:05:21.235Z,2.53
2022-08-11T17:08:08.290Z,1.40
2022-08-11T17:11:10.443Z,2.47
2022-08-11T17:14:02.748Z,2.00
2022-08-11T17:16:55.655Z,2.60
2022-08-11T17:20:39.649Z,3.10
2022-08-11T17:22:54.487Z,1.60
2022-08-11T17:26:03.637Z,2.40
2022-08-11T17:28:54.671Z,2.40
2022-08-11T17:31:41.844Z,3.07
2022-08-11T17:34:28.143Z,2.47
2022-08-11T17:37:16.198Z,2.50
2022-08-11T17:40:03.952Z,2.77
2022-08-11T17:42:51.789Z,1.93
2022-08-11T17:45:39.385Z,1.83
2022-08-11T17:48:47.623Z,1.30
2022-08-11T17:51:39.028Z,3.43
2022-08-11T17:54:25.927Z,3.50
2022-08-11T17:57:20.387Z,2.03
2022-08-11T18:00:13.611Z,2.60
2022-08-11T18:03:02.530Z,4.63
2022-08-11T18:05:52.322Z,3.33
2022-08-11T18:08:39.550Z,2.53
2022-08-11T18:12:07.393Z,2.40
2022-08-11T18:14:33.578Z,1.87
2022-08-11T18:17:19.341Z,3.17
2022-08-11T18:20:05.086Z,2.23
2022-08-11T18:22:56.133Z,2.20
2022-08-11T18:25:53.905Z,2.73
2022-08-11T18:28:47.989Z,2.13
2022-08-11T18:31:35.364Z,3.50
2022-08-11T18:34:25.102Z,2.63
2022-08-11T18:37:24.715Z,3.33
2022-08-11T18:40:18.706Z,2.47
2022-08-11T18:43:06.637Z,3.77
2022-08-11T18:46:00.480Z,2.00
2022-08-11T18:48:57.455Z,2.87
2022-08-11T18:51:45.133Z,3.07
2022-08-11T18:54:32.355Z,3.27
2022-08-11T18:57:22.286Z,2.40
2022-08-11T19:00:11.061Z,4.93
2022-08-11T19:02:58.972Z,3.33
2022-08-11T19:06:08.397Z,2.87
2022-08-11T19:09:00.136Z,2.20
2022-08-11T19:11:47.066Z,3.70
2022-08-11T19:14:33.527Z,2.70
2022-08-11T19:17:44.647Z,2.73
2022-08-11T19:20:52.217Z,2.93
2022-08-11T19:23:43.890Z,3.70
2022-08-11T19:26:29.746Z,3.60
2022-08-11T19:30:05.206Z,1.93
2022-08-11T19:32:23.890Z,2.73
2022-08-11T19:35:11.005Z,2.80
2022-08-11T19:37:58.440Z,2.03
2022-08-11T19:40:44.570Z,3.07
2022-08-11T19:43:31.465Z,4.27
2022-08-11T19:46:20.003Z,3.03
2022-08-11T19:49:11.379Z,2.50
2022-08-11T19:51:57.940Z,3.00
2022-08-11T19:54:50.425Z,2.77
2022-08-11T19:57:40.155Z,3.87
2022-08-11T20:00:33.335Z,4.57
2022-08-11T20:03:22.369Z,3.77
2022-08-11T20:06:09.190Z,4.70
2022-08-11T20:08:59.126Z,3.17
2022-08-11T20:11:48.738Z,2.87
2022-08-11T20:14:36.313Z,2.20
2022-08-11T20:17:22.602Z,3.03
2022-08-11T20:20:09.769Z,3.90
2022-08-11T20:22:56.787Z,2.93
2022-08-11T20:25:44.387Z,3.47
2022-08-11T20:28:32.880Z,3.23
2022-08-11T20:31:18.350Z,1.70
2022-08-11T20:34:05.620Z,1.97
2022-08-11T20:36:54.832Z,2.97
2022-08-11T20:39:43.193Z,2.10
2022-08-11T20:42:30.934Z,1.60
2022-08-11T20:45:23.593Z,3.33
2022-08-11T20:51:20.677Z,1.83
2022-08-11T20:54:08.480Z,3.23
2022-08-11T20:56:57.867Z,4.00
2022-08-11T20:59:52.665Z,3.20
2022-08-11T21:02:45.076Z,2.27
2022-08-11T21:06:10.286Z,1.80
2022-08-11T21:08:45.968Z,1.60
2022-08-11T21:11:33.520Z,1.83
2022-08-11T21:14:21.900Z,2.23
2022-08-11T21:17:27.444Z,4.10
2022-08-11T21:20:21.329Z,2.77
2022-08-11T21:23:14.944Z,1.93
2022-08-11T21:26:21.193Z,2.40
2022-08-11T21:29:08.178Z,3.47
2022-08-11T21:31:54.989Z,3.50
2022-08-11T21:34:42.439Z,4.83
2022-08-11T21:37:31.054Z,3.60
2022-08-11T21:40:19.042Z,2.83
2022-08-11T21:43:06.994Z,5.40
2022-08-11T21:45:55.556Z,1.77
2022-08-11T21:48:44.895Z,2.10
2022-08-11T21:51:30.889Z,1.70
2022-08-11T21:54:18.245Z,1.73
2022-08-11T21:57:05.697Z,2.37
2022-08-11T22:00:07.377Z,1.70
2022-08-11T22:02:57.502Z,1.93
2022-08-11T22:05:44.832Z,1.80
2022-08-11T22:08:31.560Z,2.87
2022-08-11T22:11:32.507Z,2.87
2022-08-11T22:14:22.844Z,2.13
2022-08-11T22:17:08.845Z,2.23
2022-08-11T22:19:55.766Z,2.93
2022-08-11T22:22:49.124Z,1.77
2022-08-11T22:25:51.338Z,2.43
2022-08-11T22:28:40.038Z,1.93
2022-08-11T22:31:27.016Z,1.47
2022-08-11T22:34:12.914Z,1.60
2022-08-11T22:37:01.617Z,1.43
2022-08-11T22:40:01.692Z,2.10
2022-08-11T22:42:52.138Z,1.90
2022-08-11T22:45:39.191Z,2.43
2022-08-11T22:48:28.240Z,2.50
2022-08-11T22:51:14.637Z,2.33
2022-08-11T22:54:01.719Z,2.50
2022-08-11T22:56:49.745Z,3.53
2022-08-11T22:59:37.242Z,2.17
2022-08-11T23:02:25.082Z,3.70
2022-08-11T23:05:11.230Z,2.63
2022-08-11T23:07:58.949Z,2.03
2022-08-11T23:10:45.514Z,3.37
2022-08-11T23:13:32.521Z,1.87
2022-08-11T23:16:18.889Z,2.03
2022-08-11T23:19:05.653Z,2.57
2022-08-11T23:21:53.409Z,1.60
2022-08-11T23:24:40.733Z,1.73
2022-08-11T23:27:28.794Z,2.17
2022-08-11T23:30:18.728Z,2.57
2022-08-11T23:33:08.773Z,2.93
2022-08-11T23:36:03.412Z,3.27
2022-08-11T23:38:51.892Z,3.10
2022-08-11T23:41:38.345Z,2.37
2022-08-11T23:44:25.243Z,2.93
2022-08-11T23:47:19.466Z,2.47
2022-08-11T23:50:06.604Z,2.43
2022-08-11T23:52:54.531Z,2.13
2022-08-11T23:55:40.133Z,3.80
2022-08-11T23:58:26.489Z,2.77
